Time;durP1;ratioP1;P1;durP2;ratioP2;P2;SDS_P1;SDS_P2;PMS_P1;PMS_P2;Temp;Humidity;BMP_temperature;BMP_pressure;BME280_temperature;BME280_humidity;BME280_pressure;Samples;Min_cycle;Max_cycle;Signal;HPM_P1;HPM_P2
2021/07/25 00:03:26;;;;;;;42.50;24.57;;;;;;;17.56;66.54;98352.50;512181;1092;103429;-42
2021/07/25 00:43:55;;;;;;;28.30;22.10;;;;;;;18.22;67.44;98325.08;512250;1091;103256;-42
2021/07/25 00:54:03;;;;;;;27.77;22.20;;;;;;;18.23;67.57;98317.84;511957;1092;103193;-42
2021/07/25 01:04:11;;;;;;;29.93;22.08;;;;;;;18.12;68.14;98321.71;512057;1092;103142;-42
2021/07/25 01:14:18;;;;;;;32.75;22.50;;;;;;;18.02;68.46;98311.94;512013;1092;103045;-42
2021/07/25 01:24:48;;;;;;;33.80;23.80;;;;;;;17.96;69.15;98297.01;512092;1095;103141;-42
2021/07/25 01:34:55;;;;;;;31.17;24.57;;;;;;;18.05;68.93;98287.28;512109;1095;103082;-41
2021/07/25 01:45:03;;;;;;;30.80;22.55;;;;;;;18.08;68.58;98276.80;511923;1095;103526;-42
2021/07/25 01:55:13;;;;;;;23.90;18.40;;;;;;;18.06;69.66;98278.17;512057;1095;103089;-43
2021/07/25 02:05:20;;;;;;;27.70;20.45;;;;;;;18.12;69.85;98271.67;512164;1095;103505;-42
2021/07/25 02:15:27;;;;;;;26.67;20.33;;;;;;;18.29;69.85;98265.84;511931;1095;103156;-42
2021/07/25 02:25:37;;;;;;;28.07;21.33;;;;;;;18.30;70.03;98265.55;512057;1094;103563;-42
2021/07/25 02:35:45;;;;;;;26.60;20.63;;;;;;;18.26;70.00;98272.56;512054;1095;103260;-41
2021/07/25 02:45:53;;;;;;;27.70;21.33;;;;;;;18.38;70.14;98275.59;511965;1094;103528;-42
2021/07/25 02:56:01;;;;;;;28.33;20.55;;;;;;;18.34;70.14;98271.91;511975;1095;104186;-43
2021/07/25 03:06:09;;;;;;;28.55;19.53;;;;;;;18.31;69.81;98267.14;511958;1094;103166;-44
2021/07/25 03:16:17;;;;;;;23.70;19.97;;;;;;;18.35;70.57;98270.83;511986;1096;103393;-42
2021/07/25 03:26:24;;;;;;;25.50;19.53;;;;;;;18.46;70.60;98265.34;511876;1095;103144;-42
2021/07/25 03:36:32;;;;;;;26.93;20.23;;;;;;;18.47;70.48;98264.27;511982;1095;103540;-43
2021/07/25 03:46:39;;;;;;;27.53;20.08;;;;;;;18.48;70.61;98268.53;512035;1095;103137;-43
2021/07/25 03:56:47;;;;;;;26.25;19.33;;;;;;;18.43;71.37;98280.08;511762;1095;103140;-43
2021/07/25 04:06:55;;;;;;;23.40;18.75;;;;;;;18.66;70.86;98289.95;511985;1095;103515;-42
2021/07/25 04:17:04;;;;;;;27.63;19.40;;;;;;;19.46;70.91;98294.30;511940;1095;103143;-43
2021/07/25 04:27:11;;;;;;;;;;;;;;;20.40;70.07;98303.78;511988;1095;103142;-43
2021/07/25 04:57:44;;;;;;;25.30;18.50;;;;;;;20.08;68.17;98312.74;511910;1094;103143;-43
2021/07/25 05:07:54;;;;;;;27.57;19.43;;;;;;;19.82;68.73;98310.55;512009;1095;103070;-43
2021/07/25 05:18:01;;;;;;;28.57;19.83;;;;;;;19.81;68.68;98305.48;512007;1095;103122;-43
2021/07/25 05:28:08;;;;;;;32.28;20.45;;;;;;;20.02;69.02;98306.69;512072;1095;103159;-43
2021/07/25 05:38:17;;;;;;;27.73;19.03;;;;;;;20.14;68.64;98303.52;512188;1094;103636;-42
2021/07/25 05:48:24;;;;;;;22.97;18.40;;;;;;;20.34;67.82;98308.44;512008;1095;103082;-43
2021/07/25 05:58:32;;;;;;;20.60;14.68;;;;;;;20.69;67.74;98311.48;512017;1095;103147;-43
2021/07/25 06:08:40;;;;;;;18.45;14.73;;;;;;;21.48;66.11;98314.44;511964;1094;103594;-43
2021/07/25 06:28:55;;;;;;;15.70;13.40;;;;;;;22.19;64.80;98309.05;511954;1095;103521;-44
2021/07/25 06:39:02;;;;;;;20.47;15.03;;;;;;;22.47;63.95;98318.45;512249;1094;103492;-42
2021/07/25 06:49:08;;;;;;;;;;;;;;;22.60;62.78;98320.23;512169;1095;103172;-42
2021/07/25 06:59:16;;;;;;;16.77;14.03;;;;;;;22.52;62.30;98317.53;511944;1094;103162;-42
2021/07/25 07:09:22;;;;;;;;;;;;;;;22.46;61.76;98333.03;512149;1094;103150;-42
2021/07/25 07:19:28;;;;;;;16.40;14.50;;;;;;;22.38;61.87;98333.03;511969;1095;103057;-41
2021/07/25 07:29:36;;;;;;;16.77;14.17;;;;;;;22.44;61.67;98329.86;512224;1094;103170;-43
2021/07/25 07:39:46;;;;;;;17.83;13.83;;;;;;;22.83;61.61;98341.67;511978;1095;103070;-42
2021/07/25 07:49:54;;;;;;;17.90;13.73;;;;;;;23.01;60.41;98350.56;511930;1095;103162;-41
2021/07/25 08:00:02;;;;;;;18.20;15.17;;;;;;;23.16;60.50;98350.86;512165;1094;103124;-42
2021/07/25 08:10:09;;;;;;;18.53;14.23;;;;;;;23.11;60.03;98361.02;511972;1095;103122;-41
2021/07/25 08:20:15;;;;;;;;;;;;;;;23.06;60.10;98366.58;512044;1095;103141;-42
2021/07/25 08:30:24;;;;;;;19.63;14.67;;;;;;;23.38;59.82;98365.28;511897;1095;103560;-41
2021/07/25 08:40:33;;;;;;;18.53;13.53;;;;;;;23.92;59.54;98365.67;512135;1095;103128;-41
2021/07/25 08:50:39;;;;;;;18.90;13.57;;;;;;;24.57;59.25;98365.20;511956;1095;103447;-42
2021/07/25 09:00:51;;;;;;;20.50;13.90;;;;;;;25.31;57.81;98367.19;511996;1094;103184;-42
2021/07/25 09:11:02;;;;;;;19.20;12.70;;;;;;;25.90;57.37;98376.98;511922;1095;103218;-42
2021/07/25 09:21:10;;;;;;;16.93;12.33;;;;;;;26.60;57.02;98372.28;512223;1094;103496;-42
2021/07/25 09:31:18;;;;;;;17.57;13.43;;;;;;;27.24;54.81;98366.03;512233;1095;103239;-41
2021/07/25 09:41:24;;;;;;;13.07;11.57;;;;;;;27.80;52.41;98376.86;512043;1095;103202;-42
2021/07/25 09:51:34;;;;;;;13.68;12.28;;;;;;;27.95;49.86;98361.72;512146;1095;103089;-42
2021/07/25 10:01:44;;;;;;;14.43;11.47;;;;;;;28.30;50.00;98361.80;512156;1095;103143;-42
2021/07/25 10:11:54;;;;;;;14.83;13.00;;;;;;;28.51;49.08;98359.57;512206;1095;103135;-41
2021/07/25 10:22:08;;;;;;;14.90;12.20;;;;;;;28.62;48.73;98363.30;511881;1094;103505;-43
2021/07/25 10:32:19;;;;;;;12.95;11.65;;;;;;;28.87;48.69;98363.11;512411;1095;103262;-43
2021/07/25 10:42:29;;;;;;;14.00;11.10;;;;;;;29.43;48.32;98360.72;511996;1095;103150;-41
2021/07/25 11:33:53;;;;;;;16.27;13.87;;;;;;;29.14;45.69;98370.28;512133;1095;103124;-45
2021/07/25 11:43:59;;;;;;;17.03;14.43;;;;;;;29.28;46.20;98381.44;511982;1094;103528;-44
2021/07/25 11:54:07;;;;;;;16.23;13.57;;;;;;;28.93;45.95;98378.80;512098;1095;103068;-44
2021/07/25 12:04:20;;;;;;;14.85;13.25;;;;;;;28.51;45.56;98385.98;511935;1095;103127;-44
2021/07/25 12:14:29;;;;;;;15.77;12.87;;;;;;;27.77;45.78;98399.30;512045;1095;103649;-45
2021/07/25 12:24:39;;;;;;;13.80;12.40;;;;;;;27.12;46.23;98401.35;511996;1095;103455;-43
2021/07/25 12:34:47;;;;;;;13.60;12.30;;;;;;;26.48;46.47;98407.52;512396;1095;103522;-42
2021/07/25 12:44:55;;;;;;;14.47;13.00;;;;;;;25.84;46.83;98419.75;511969;1095;103139;-41
2021/07/25 12:55:02;;;;;;;16.07;13.00;;;;;;;24.95;47.97;98423.81;512290;1095;103277;-43
2021/07/25 13:05:10;;;;;;;16.73;14.87;;;;;;;24.33;49.75;98444.17;512150;1095;103125;-41
2021/07/25 13:15:17;;;;;;;19.27;16.67;;;;;;;23.98;51.33;98443.48;512197;1094;103524;-41
2021/07/25 13:25:24;;;;;;;20.10;18.00;;;;;;;23.41;52.74;98434.79;512211;1096;103121;-41
2021/07/25 13:35:33;;;;;;;18.27;16.40;;;;;;;23.39;54.01;98437.80;512092;1094;103621;-41
2021/07/25 13:45:38;;;;;;;18.77;16.50;;;;;;;23.07;55.07;98433.68;511928;1095;103119;-41
2021/07/25 13:55:46;;;;;;;26.47;22.53;;;;;;;22.85;56.04;98431.91;512231;1095;103523;-42
2021/07/25 14:05:54;;;;;;;27.57;22.03;;;;;;;22.40;57.84;98417.02;512130;1095;103263;-42
2021/07/25 14:16:02;;;;;;;23.17;18.97;;;;;;;22.22;58.51;98426.92;512221;1095;103559;-41
2021/07/25 14:26:11;;;;;;;19.90;17.80;;;;;;;22.11;59.34;98418.33;512166;1095;103167;-40
2021/07/25 14:36:19;;;;;;;24.20;18.40;;;;;;;22.31;60.37;98395.44;511880;1095;103648;-41
2021/07/25 14:46:29;;;;;;;24.40;17.70;;;;;;;22.32;60.06;98378.17;512218;1094;103174;-42
2021/07/25 14:56:37;;;;;;;18.20;16.30;;;;;;;22.28;60.80;98352.98;512005;1095;103150;-40
2021/07/25 15:06:42;;;;;;;;;;;;;;;22.26;60.97;98347.91;512182;1095;103508;-41
2021/07/25 15:16:49;;;;;;;22.10;17.77;;;;;;;22.16;61.51;98355.45;511991;1095;103639;-39
2021/07/25 15:26:57;;;;;;;26.07;19.90;;;;;;;21.99;61.97;98334.61;511943;1095;103125;-41
2021/07/25 15:37:04;;;;;;;28.07;21.33;;;;;;;21.88;62.10;98317.16;511822;1095;103267;-41
2021/07/25 15:47:12;;;;;;;27.53;20.70;;;;;;;21.83;62.33;98295.78;512141;1095;103131;-40
2021/07/25 15:57:20;;;;;;;27.85;19.45;;;;;;;21.84;62.74;98300.84;512146;1095;103143;-41
2021/07/25 16:07:26;;;;;;;23.50;18.70;;;;;;;21.78;63.19;98288.64;512190;1095;103156;-42
2021/07/25 16:17:32;;;;;;;22.70;18.00;;;;;;;21.72;63.46;98281.80;512000;1094;103701;-42
2021/07/25 16:27:38;;;;;;;;;;;;;;;21.64;64.08;98279.87;512104;1094;103135;-41
2021/07/25 16:37:46;;;;;;;24.60;20.45;;;;;;;21.56;63.65;98277.94;512132;1095;103703;-41
2021/07/25 16:47:52;;;;;;;;;;;;;;;21.57;64.34;98290.29;511946;1095;104571;-41
2021/07/25 16:58:00;;;;;;;20.80;16.63;;;;;;;21.52;64.22;98277.74;512016;1095;103437;-42
2021/07/25 17:08:06;;;;;;;16.57;14.77;;;;;;;21.50;64.47;98266.50;511867;1095;103668;-41
2021/07/25 17:28:20;;;;;;;19.67;17.10;;;;;;;21.13;65.36;98259.64;512180;1094;103159;-42
2021/07/25 17:38:26;;;;;;;;;;;;;;;21.05;65.33;98263.05;511953;1095;103119;-43
2021/07/25 17:48:34;;;;;;;50.05;16.45;;;;;;;20.97;65.86;98259.22;512072;1095;103531;-42
2021/07/25 17:58:42;;;;;;;20.37;17.27;;;;;;;20.98;66.43;98263.50;511915;1095;103451;-43
2021/07/25 18:08:49;;;;;;;;;;;;;;;20.87;67.08;98253.31;512067;1095;103165;-42
2021/07/25 18:29:04;;;;;;;21.65;17.78;;;;;;;20.65;67.25;98236.09;511846;1095;103162;-42
2021/07/25 18:39:12;;;;;;;20.10;17.63;;;;;;;20.58;67.66;98259.87;512185;1095;103247;-42
2021/07/25 18:49:19;;;;;;;18.03;15.80;;;;;;;20.53;67.63;98270.73;512016;1095;103508;-42
2021/07/25 18:59:27;;;;;;;21.25;16.43;;;;;;;20.42;68.01;98272.07;511902;1095;103588;-42
2021/07/25 19:09:46;;;;;;;21.40;17.43;;;;;;;20.42;68.57;98277.44;512069;1095;103166;-40
2021/07/25 19:19:54;;;;;;;19.60;17.53;;;;;;;20.40;68.28;98288.48;512105;1096;103166;-42
2021/07/25 19:30:02;;;;;;;18.95;16.95;;;;;;;20.34;67.83;98275.42;511870;1095;103126;-44
2021/07/25 19:40:12;;;;;;;19.60;17.50;;;;;;;20.14;68.02;98274.78;511934;1094;103354;-42
2021/07/25 19:50:17;;;;;;;20.90;17.47;;;;;;;19.99;68.39;98250.93;512296;1095;103547;-42
2021/07/25 20:00:24;;;;;;;20.75;17.40;;;;;;;19.95;68.17;98252.63;511874;1095;103319;-41
2021/07/25 20:10:32;;;;;;;24.17;19.20;;;;;;;19.81;68.12;98227.69;512044;1095;103435;-41
2021/07/25 20:20:40;;;;;;;19.55;17.50;;;;;;;19.59;68.71;98213.09;512046;1095;103157;-42
2021/07/25 20:30:47;;;;;;;23.18;18.95;;;;;;;19.39;68.76;98199.25;511990;1095;103156;-42
2021/07/25 20:40:54;;;;;;;23.08;18.30;;;;;;;19.30;68.75;98207.98;511979;1094;103559;-42
2021/07/25 20:51:00;;;;;;;23.00;18.70;;;;;;;19.24;69.43;98216.42;511953;1095;104257;-41
2021/07/25 21:11:14;;;;;;;21.03;18.30;;;;;;;19.25;69.31;98208.09;512026;1095;103051;-43
2021/07/25 21:21:22;;;;;;;20.33;17.70;;;;;;;19.30;69.70;98205.30;511918;1095;103119;-41
2021/07/25 21:31:40;;;;;;;22.93;18.18;;;;;;;19.22;69.73;98203.32;511928;1097;103137;-41
2021/07/25 21:41:48;;;;;;;24.37;19.40;;;;;;;19.10;69.70;98194.16;511860;1094;103524;-42
2021/07/25 21:51:56;;;;;;;23.23;18.38;;;;;;;18.99;69.53;98172.91;511973;1095;103130;-42
2021/07/25 22:02:13;;;;;;;21.77;17.67;;;;;;;18.93;70.03;98159.91;511913;1095;103238;-42
2021/07/25 22:12:21;;;;;;;20.07;17.50;;;;;;;18.92;69.78;98153.73;512156;1095;103396;-42
2021/07/25 22:22:30;;;;;;;22.43;17.70;;;;;;;18.95;70.34;98160.41;512131;1095;103083;-42
2021/07/25 22:32:38;;;;;;;23.15;19.05;;;;;;;18.84;70.09;98135.67;511959;1095;103061;-42
2021/07/25 22:42:45;;;;;;;21.43;18.40;;;;;;;18.82;70.06;98145.89;512024;1095;103507;-42
2021/07/25 22:52:52;;;;;;;24.10;19.40;;;;;;;18.82;70.03;98151.25;511882;1095;103128;-42
2021/07/25 23:03:01;;;;;;;21.80;18.30;;;;;;;18.68;70.28;98128.98;512007;1095;103130;-42
2021/07/25 23:13:10;;;;;;;20.45;17.00;;;;;;;18.71;70.59;98120.38;512089;1094;103172;-41
2021/07/25 23:23:18;;;;;;;20.52;18.33;;;;;;;18.65;70.79;98114.30;511923;1095;103229;-42
2021/07/25 23:33:25;;;;;;;28.35;18.85;;;;;;;18.66;71.12;98109.73;511882;1094;103542;-42
2021/07/25 23:43:33;;;;;;;23.25;18.15;;;;;;;18.72;71.10;98119.30;511925;1095;103172;-42
2021/07/25 23:53:39;;;;;;;22.98;17.70;;;;;;;18.73;70.91;98120.09;512062;1094;103105;-41
